Time;durP1;ratioP1;P1;durP2;ratioP2;P2;SDS_P1;SDS_P2;PMS_P1;PMS_P2;Temp;Humidity;BMP_temperature;BMP_pressure;BME280_temperature;BME280_humidity;BME280_pressure;Samples;Min_cycle;Max_cycle;Signal;HPM_P1;HPM_P2
2021/01/26 00:01:34;;;;;;;47.80;29.50;;;0.20;87.20;;;;;;5057593;28;20448;-88
2021/01/26 00:04:05;;;;;;;41.40;28.93;;;0.20;88.00;;;;;;5059454;28;20567;-88
2021/01/26 00:06:34;;;;;;;41.80;27.50;;;0.30;86.70;;;;;;5050324;28;20466;-88
2021/01/26 00:09:01;;;;;;;37.13;26.73;;;0.20;86.80;;;;;;5036003;28;20475;-87
2021/01/26 00:11:30;;;;;;;41.67;26.50;;;0.30;86.60;;;;;;5050824;28;20492;-87
2021/01/26 00:13:57;;;;;;;41.60;27.37;;;0.10;86.70;;;;;;5053359;28;20454;-87
2021/01/26 00:16:26;;;;;;;43.07;27.10;;;;;;;;;;5035206;28;20963;-87
2021/01/26 00:18:53;;;;;;;41.43;26.90;;;0.10;86.70;;;;;;5040136;28;20452;-88
2021/01/26 00:21:27;;;;;;;38.63;28.00;;;0.10;87.90;;;;;;5056279;28;20475;-88
2021/01/26 00:23:56;;;;;;;37.10;25.80;;;0.10;87.80;;;;;;5059265;28;20473;-87
2021/01/26 00:26:23;;;;;;;39.90;27.50;;;0.10;87.20;;;;;;5055744;28;20537;-87
2021/01/26 00:28:50;;;;;;;36.80;26.30;;;0.10;87.50;;;;;;5055077;28;20525;-87
2021/01/26 00:31:16;;;;;;;35.33;24.30;;;0.20;86.80;;;;;;5051409;28;20453;-88
2021/01/26 00:33:43;;;;;;;31.27;23.30;;;0.20;86.50;;;;;;5051001;28;20496;-86
2021/01/26 00:36:10;;;;;;;33.13;23.40;;;0.10;86.10;;;;;;5049871;28;20835;-87
2021/01/26 00:41:21;;;;;;;30.10;22.93;;;0.10;84.50;;;;;;5047341;28;20460;-87
2021/01/26 00:43:54;;;;;;;31.00;22.10;;;0.10;84.50;;;;;;5053817;28;20481;-86
2021/01/26 00:46:25;;;;;;;29.90;22.63;;;0.20;84.70;;;;;;5047060;28;20455;-86
2021/01/26 00:48:52;;;;;;;28.37;21.33;;;0.10;84.10;;;;;;5056359;28;20451;-87
2021/01/26 00:51:21;;;;;;;28.80;21.80;;;0.10;84.00;;;;;;5067178;28;22797;-87
2021/01/26 00:53:50;;;;;;;27.50;20.53;;;0.10;84.20;;;;;;5064174;28;20469;-87
2021/01/26 00:56:17;;;;;;;25.97;19.33;;;0.10;83.20;;;;;;5054635;28;20531;-87
2021/01/26 00:58:49;;;;;;;23.97;18.07;;;0.10;82.80;;;;;;5054601;28;20443;-87
2021/01/26 01:01:17;;;;;;;26.40;19.93;;;0.10;81.80;;;;;;5033519;28;20484;-86
2021/01/26 01:03:46;;;;;;;22.63;17.00;;;0.10;81.70;;;;;;5035522;28;20470;-87
2021/01/26 01:06:15;;;;;;;23.00;17.00;;;0.10;81.40;;;;;;5053716;28;20452;-88
2021/01/26 01:08:45;;;;;;;22.23;16.30;;;0.00;80.80;;;;;;5047819;28;20489;-86
2021/01/26 01:11:13;;;;;;;23.20;17.07;;;0.00;80.10;;;;;;5057482;28;20448;-86
2021/01/26 01:13:41;;;;;;;23.17;17.10;;;0.00;79.90;;;;;;5060949;28;20436;-87
2021/01/26 01:16:13;;;;;;;20.33;14.80;;;0.00;80.30;;;;;;5056661;28;20460;-87
2021/01/26 01:18:43;;;;;;;20.07;15.00;;;0.00;79.80;;;;;;5050804;28;20463;-87
2021/01/26 01:21:11;;;;;;;20.80;15.03;;;0.00;79.40;;;;;;5041824;28;20551;-86
2021/01/26 01:23:39;;;;;;;19.60;15.00;;;0.00;79.00;;;;;;5049379;28;20547;-86
2021/01/26 01:26:11;;;;;;;17.33;13.23;;;0.10;77.90;;;;;;5049623;28;20451;-87
2021/01/26 01:28:40;;;;;;;18.30;14.50;;;0.00;77.80;;;;;;5053703;28;20824;-86
2021/01/26 01:31:07;;;;;;;15.50;12.57;;;0.00;77.80;;;;;;5063730;28;20468;-87
2021/01/26 01:33:34;;;;;;;15.90;12.97;;;0.00;77.60;;;;;;5065563;28;20484;-87
2021/01/26 01:36:04;;;;;;;18.07;13.80;;;0.00;77.50;;;;;;5073598;28;20460;-88
2021/01/26 01:38:33;;;;;;;15.23;12.33;;;-0.10;76.80;;;;;;5055580;28;20435;-87
2021/01/26 01:41:10;;;;;;;15.60;12.70;;;-0.20;76.50;;;;;;5058217;28;20440;-87
2021/01/26 01:43:37;;;;;;;17.77;12.23;;;-0.30;76.20;;;;;;5075466;28;20482;-87
2021/01/26 01:46:12;;;;;;;14.77;12.00;;;-0.40;76.00;;;;;;5074086;28;20426;-87
2021/01/26 01:48:39;;;;;;;15.30;11.80;;;-0.50;75.40;;;;;;5062726;28;20522;-87
2021/01/26 01:51:10;;;;;;;13.60;11.10;;;-0.50;75.00;;;;;;5061536;28;20471;-87
2021/01/26 01:53:41;;;;;;;13.50;11.53;;;-0.40;74.50;;;;;;5058818;28;20490;-87
2021/01/26 01:56:15;;;;;;;16.33;12.37;;;-0.30;74.70;;;;;;5061654;28;20452;-87
2021/01/26 01:58:52;;;;;;;13.07;11.67;;;-0.20;74.30;;;;;;5041154;28;20454;-87
2021/01/26 02:01:23;;;;;;;13.97;10.93;;;-0.20;73.30;;;;;;5056754;28;20529;-86
2021/01/26 02:03:55;;;;;;;11.13;9.93;;;-0.10;73.50;;;;;;5054758;28;20566;-86
2021/01/26 02:06:26;;;;;;;13.70;10.70;;;-0.10;73.50;;;;;;5059320;28;20470;-87
2021/01/26 02:08:57;;;;;;;11.10;9.63;;;-0.10;73.20;;;;;;5056778;28;20444;-86
2021/01/26 02:11:30;;;;;;;11.10;9.10;;;-0.20;73.10;;;;;;5066613;28;21253;-87
2021/01/26 02:13:56;;;;;;;13.33;9.83;;;-0.20;72.90;;;;;;5070529;28;20481;-87
2021/01/26 02:17:00;;;;;;;11.70;9.30;;;-0.20;73.30;;;;;;5062873;28;20444;-87
2021/01/26 02:20:01;;;;;;;12.47;10.10;;;-0.20;72.70;;;;;;5042656;28;20492;-86
2021/01/26 02:23:02;;;;;;;11.73;9.23;;;-0.20;73.20;;;;;;5062900;28;20485;-87
2021/01/26 02:25:53;;;;;;;10.13;8.57;;;-0.30;72.80;;;;;;5036782;28;20448;-87
2021/01/26 02:28:53;;;;;;;10.63;8.67;;;-0.40;72.80;;;;;;5059542;28;20464;-88
2021/01/26 02:31:50;;;;;;;11.60;9.23;;;-0.50;73.40;;;;;;5047888;28;20553;-87
2021/01/26 02:34:50;;;;;;;11.27;9.90;;;-0.50;73.50;;;;;;5056339;28;20457;-87
2021/01/26 02:37:55;;;;;;;12.93;10.10;;;-0.50;73.60;;;;;;5027191;28;20461;-87
2021/01/26 02:40:30;;;;;;;16.00;11.57;;;-0.60;73.90;;;;;;5060037;28;20444;-86
2021/01/26 02:43:32;;;;;;;11.93;10.50;;;-0.50;74.20;;;;;;5066447;28;20454;-87
2021/01/26 02:46:12;;;;;;;14.70;10.80;;;-0.60;74.20;;;;;;5065202;28;20453;-86
2021/01/26 02:49:00;;;;;;;12.37;10.60;;;-0.60;74.30;;;;;;5072242;28;20460;-87
2021/01/26 02:51:41;;;;;;;11.63;9.47;;;-0.70;74.00;;;;;;5071743;28;20448;-87
2021/01/26 02:54:20;;;;;;;12.27;10.40;;;-0.60;74.30;;;;;;5044556;28;20463;-88
2021/01/26 02:56:57;;;;;;;12.93;9.30;;;-0.60;74.10;;;;;;5059170;28;20500;-87
2021/01/26 02:59:41;;;;;;;11.10;9.70;;;-0.70;73.80;;;;;;5062071;28;20467;-86
2021/01/26 03:02:18;;;;;;;12.97;10.60;;;-0.70;74.20;;;;;;5061075;28;20482;-88
2021/01/26 03:04:50;;;;;;;12.10;9.83;;;-0.80;74.30;;;;;;5064078;28;20478;-88
2021/01/26 03:07:21;;;;;;;14.30;10.60;;;-0.80;74.50;;;;;;5056822;28;20585;-87
2021/01/26 03:09:53;;;;;;;13.80;11.00;;;-1.00;74.70;;;;;;5061354;28;20449;-87
2021/01/26 03:12:28;;;;;;;12.40;10.73;;;-1.00;75.40;;;;;;5060574;28;20467;-87
2021/01/26 03:14:59;;;;;;;14.63;12.10;;;-1.10;75.90;;;;;;5045199;28;20447;-88
2021/01/26 03:17:39;;;;;;;15.20;12.80;;;-1.20;76.80;;;;;;5057672;28;20451;-87
2021/01/26 03:20:15;;;;;;;13.87;12.10;;;-1.20;77.50;;;;;;5045823;28;20453;-88
2021/01/26 03:22:47;;;;;;;16.07;13.00;;;-1.40;79.40;;;;;;5052767;28;20478;-87
2021/01/26 03:25:15;;;;;;;17.40;13.57;;;-1.50;80.20;;;;;;5057917;28;20453;-87
2021/01/26 03:27:46;;;;;;;16.87;14.07;;;-1.50;80.60;;;;;;5054697;28;20951;-86
2021/01/26 03:30:19;;;;;;;19.70;14.97;;;-1.50;82.00;;;;;;5059547;28;20447;-87
2021/01/26 03:32:50;;;;;;;20.70;14.93;;;-1.50;82.90;;;;;;5062497;28;20516;-87
2021/01/26 03:35:17;;;;;;;20.67;16.13;;;-1.50;83.00;;;;;;5060939;28;20449;-86
2021/01/26 03:37:50;;;;;;;21.60;15.90;;;-1.50;83.00;;;;;;5039130;28;20485;-86
2021/01/26 03:40:19;;;;;;;24.13;17.60;;;-1.50;83.20;;;;;;5065721;28;20467;-86
2021/01/26 03:42:48;;;;;;;24.33;17.27;;;-1.40;83.10;;;;;;5059816;28;20476;-86
2021/01/26 03:45:18;;;;;;;26.23;18.30;;;-1.30;82.80;;;;;;5066880;28;20482;-87
2021/01/26 03:48:01;;;;;;;23.73;17.60;;;-1.20;82.10;;;;;;5064593;28;20451;-87
2021/01/26 03:50:46;;;;;;;23.50;17.50;;;-1.20;81.90;;;;;;5057339;28;20496;-86
2021/01/26 03:53:41;;;;;;;25.00;19.23;;;-1.20;81.50;;;;;;5054934;28;20461;-86
2021/01/26 03:56:14;;;;;;;26.33;18.37;;;-1.10;80.70;;;;;;5038314;28;20449;-86
2021/01/26 03:58:50;;;;;;;23.23;17.33;;;-1.10;81.10;;;;;;5034594;28;20536;-87
2021/01/26 04:01:24;;;;;;;24.30;17.93;;;-1.10;80.80;;;;;;5035794;28;20806;-86
2021/01/26 04:04:01;;;;;;;26.80;19.50;;;-1.00;79.90;;;;;;5051165;28;22110;-86
2021/01/26 04:06:35;;;;;;;26.20;18.87;;;-0.90;80.10;;;;;;5054099;28;20446;-86
2021/01/26 04:09:06;;;;;;;26.33;19.23;;;-0.90;79.30;;;;;;5035757;28;20473;-85
2021/01/26 04:11:41;;;;;;;29.70;19.83;;;-0.80;78.80;;;;;;5056753;28;20490;-86
2021/01/26 04:14:12;;;;;;;27.83;19.30;;;-0.80;78.90;;;;;;5052640;28;20998;-86
2021/01/26 04:16:44;;;;;;;24.77;18.33;;;-0.70;78.70;;;;;;5038684;28;20446;-86
2021/01/26 04:19:20;;;;;;;27.63;19.97;;;-0.70;78.30;;;;;;5050545;28;20450;-86
2021/01/26 04:22:04;;;;;;;22.77;17.23;;;-0.70;78.40;;;;;;5053524;28;20514;-86
2021/01/26 04:24:35;;;;;;;26.00;18.50;;;-0.70;78.30;;;;;;5050443;28;20483;-87
2021/01/26 04:27:06;;;;;;;25.60;18.33;;;-0.60;78.20;;;;;;5039771;28;20546;-86
2021/01/26 04:29:35;;;;;;;25.53;18.80;;;-0.60;78.10;;;;;;5052691;28;20531;-85
2021/01/26 04:32:08;;;;;;;28.50;19.40;;;-0.50;77.50;;;;;;5050833;28;20450;-86
2021/01/26 04:34:36;;;;;;;24.33;18.63;;;-0.50;78.00;;;;;;5059332;28;20469;-88
2021/01/26 04:37:03;;;;;;;25.67;18.67;;;-0.50;77.50;;;;;;5060340;28;20532;-86
2021/01/26 04:39:30;;;;;;;24.20;17.47;;;-0.40;77.80;;;;;;5059070;28;20473;-85
2021/01/26 04:42:03;;;;;;;22.60;18.27;;;-0.40;77.70;;;;;;5046848;28;20493;-85
2021/01/26 04:44:53;;;;;;;28.17;17.83;;;-0.30;77.40;;;;;;5065864;28;20471;-86
2021/01/26 04:47:24;;;;;;;23.20;18.07;;;-0.20;77.50;;;;;;5070252;28;20475;-86
2021/01/26 04:50:02;;;;;;;22.47;16.80;;;-0.30;77.50;;;;;;5054294;28;20450;-86
2021/01/26 04:52:56;;;;;;;19.93;15.67;;;-0.20;77.80;;;;;;5073463;28;20507;-86
2021/01/26 04:55:32;;;;;;;21.27;15.47;;;-0.20;77.60;;;;;;5073990;28;20463;-87
2021/01/26 04:58:19;;;;;;;22.10;17.00;;;-0.20;77.90;;;;;;5069657;28;20455;-86
2021/01/26 05:01:00;;;;;;;23.00;17.57;;;-0.10;79.00;;;;;;5055383;28;20523;-86
2021/01/26 05:03:48;;;;;;;23.60;18.10;;;-0.10;79.00;;;;;;5070797;28;20457;-87
2021/01/26 05:06:19;;;;;;;25.60;17.50;;;-0.10;79.50;;;;;;5058674;28;20477;-86
2021/01/26 05:08:55;;;;;;;24.30;17.90;;;0.00;80.80;;;;;;5061239;28;20459;-86
2021/01/26 05:11:25;;;;;;;25.60;18.00;;;-0.10;82.50;;;;;;5036627;28;20485;-86
2021/01/26 05:13:57;;;;;;;24.93;19.37;;;-0.10;84.40;;;;;;5051740;28;20511;-87
2021/01/26 05:16:32;;;;;;;27.47;19.77;;;-0.10;86.60;;;;;;5049990;28;21031;-86
2021/01/26 05:19:09;;;;;;;25.17;18.50;;;-0.10;88.70;;;;;;5048330;28;20460;-85
2021/01/26 05:21:44;;;;;;;26.13;17.70;;;-0.20;90.40;;;;;;5058086;28;20475;-85
2021/01/26 05:24:23;;;;;;;25.07;17.37;;;-0.30;92.50;;;;;;5037080;28;20504;-86
2021/01/26 05:26:50;;;;;;;23.57;18.20;;;-0.30;92.70;;;;;;5052566;28;20449;-86
2021/01/26 05:32:10;;;;;;;29.10;20.53;;;-0.30;94.50;;;;;;5055864;28;20448;-85
2021/01/26 05:34:41;;;;;;;25.37;19.30;;;-0.30;95.70;;;;;;5061511;28;20452;-86
2021/01/26 05:37:15;;;;;;;31.70;19.67;;;-0.30;95.80;;;;;;5066944;28;20455;-85
2021/01/26 05:42:30;;;;;;;30.50;20.70;;;-0.30;96.40;;;;;;5137250;27;20530;-86
2021/01/26 05:45:01;;;;;;;30.50;20.20;;;-0.30;97.30;;;;;;5103592;28;20536;-86
2021/01/26 05:47:32;;;;;;;29.77;21.43;;;-0.30;99.80;;;;;;5094400;28;20495;-86
2021/01/26 05:52:36;;;;;;;31.60;20.00;;;-0.20;99.90;;;;;;5116119;27;20561;-87
2021/01/26 05:55:14;;;;;;;32.43;21.90;;;-0.20;99.90;;;;;;5106827;27;20462;-85
2021/01/26 05:57:42;;;;;;;29.70;19.97;;;-0.20;99.60;;;;;;5114983;28;20449;-87
2021/01/26 06:00:18;;;;;;;29.30;21.27;;;-0.20;99.90;;;;;;5114656;28;20467;-86
2021/01/26 06:02:48;;;;;;;29.60;19.57;;;-0.20;99.50;;;;;;5111703;28;20441;-87
2021/01/26 06:05:19;;;;;;;29.83;19.80;;;-0.20;99.40;;;;;;5110661;28;20970;-86
2021/01/26 06:08:08;;;;;;;29.20;20.37;;;-0.10;99.50;;;;;;5125033;28;20440;-86
2021/01/26 06:10:38;;;;;;;25.33;17.73;;;-0.10;99.70;;;;;;5120976;28;20465;-86
2021/01/26 06:16:11;;;;;;;28.90;19.10;;;-0.10;97.70;;;;;;5052014;28;20597;-86
2021/01/26 06:18:40;;;;;;;25.67;18.30;;;0.00;99.10;;;;;;5059534;28;20475;-86
2021/01/26 06:21:10;;;;;;;27.17;18.43;;;-0.10;98.50;;;;;;5042488;28;20480;-87
2021/01/26 06:23:43;;;;;;;27.23;19.47;;;-0.10;97.80;;;;;;5035161;28;20514;-87
2021/01/26 06:26:13;;;;;;;23.87;17.17;;;-0.10;98.10;;;;;;5032337;28;20527;-86
2021/01/26 06:29:01;;;;;;;27.10;19.00;;;0.00;98.20;;;;;;5016713;28;20463;-88
2021/01/26 06:31:50;;;;;;;25.83;18.87;;;0.00;98.60;;;;;;5031248;28;20482;-86
2021/01/26 06:34:43;;;;;;;25.10;18.50;;;0.10;98.20;;;;;;5033318;28;20462;-86
2021/01/26 06:37:44;;;;;;;29.73;19.03;;;0.00;98.00;;;;;;5021566;28;20981;-86
2021/01/26 06:40:26;;;;;;;28.27;19.03;;;0.00;96.70;;;;;;5026478;28;20496;-86
2021/01/26 06:43:07;;;;;;;29.10;19.47;;;0.00;94.90;;;;;;5032776;28;20476;-85
2021/01/26 06:45:45;;;;;;;26.70;18.00;;;0.00;95.30;;;;;;5034621;28;20491;-86
2021/01/26 06:48:41;;;;;;;22.70;17.00;;;0.20;97.20;;;;;;5035593;28;21751;-86
2021/01/26 06:51:57;;;;;;;25.13;16.93;;;0.20;93.90;;;;;;5014769;28;20527;-86
2021/01/26 06:54:44;;;;;;;23.27;15.90;;;0.20;94.30;;;;;;4949778;29;20448;-86
2021/01/26 06:57:43;;;;;;;21.60;15.47;;;0.30;93.20;;;;;;5039156;28;20454;-86
2021/01/26 07:00:34;;;;;;;25.53;15.40;;;0.20;92.40;;;;;;5038034;28;20445;-86
2021/01/26 07:03:26;;;;;;;24.00;17.47;;;0.30;93.00;;;;;;5026642;28;20537;-84
2021/01/26 07:06:23;;;;;;;27.90;17.30;;;0.30;93.20;;;;;;5007210;28;20456;-86
2021/01/26 07:09:23;;;;;;;24.70;15.97;;;0.30;92.60;;;;;;5010162;28;20995;-83
2021/01/26 07:12:26;;;;;;;21.17;15.30;;;0.30;92.20;;;;;;5015361;28;20505;-89
2021/01/26 07:15:24;;;;;;;22.50;14.80;;;0.30;92.10;;;;;;5005650;28;20459;-89
2021/01/26 07:18:17;;;;;;;21.40;14.00;;;0.40;92.00;;;;;;5020078;28;20530;-89
2021/01/26 07:20:55;;;;;;;21.43;14.60;;;0.40;91.80;;;;;;5000988;28;20985;-88
2021/01/26 07:24:01;;;;;;;19.73;14.67;;;0.40;91.30;;;;;;5005468;28;20474;-87
2021/01/26 07:26:54;;;;;;;19.20;14.00;;;0.40;91.50;;;;;;5025220;28;20546;-87
2021/01/26 07:30:21;;;;;;;19.70;13.40;;;0.40;91.10;;;;;;5018659;28;20510;-88
2021/01/26 07:33:03;;;;;;;19.27;14.10;;;0.50;90.40;;;;;;5033405;28;20700;-89
2021/01/26 07:35:36;;;;;;;19.70;13.23;;;0.60;90.80;;;;;;5006690;28;20456;-88
2021/01/26 07:39:32;;;;;;;21.63;15.30;;;0.80;90.70;;;;;;5096372;27;20578;-89
2021/01/26 07:42:30;;;;;;;25.60;15.20;;;1.00;87.30;;;;;;5070517;28;20457;-89
2021/01/26 07:45:05;;;;;;;21.00;14.43;;;1.00;86.50;;;;;;5074159;28;20455;-87
2021/01/26 07:50:26;;;;;;;19.63;13.90;;;0.80;87.70;;;;;;5074689;28;20441;-89
2021/01/26 07:53:23;;;;;;;17.57;13.63;;;0.80;88.40;;;;;;5075553;28;20465;-87
2021/01/26 07:56:11;;;;;;;18.00;13.23;;;0.80;88.70;;;;;;5084624;28;20455;-87
2021/01/26 07:58:45;;;;;;;17.07;13.33;;;0.80;89.00;;;;;;5085049;28;20474;-88
2021/01/26 08:04:06;;;;;;;20.60;13.77;;;;;;;;;;5084909;28;20446;-88
2021/01/26 08:06:52;;;;;;;21.33;14.37;;;0.90;89.50;;;;;;5090612;28;20432;-89
2021/01/26 08:09:25;;;;;;;18.40;12.20;;;0.90;87.50;;;;;;5087730;28;20477;-88
2021/01/26 08:12:03;;;;;;;19.57;13.90;;;1.00;87.80;;;;;;5096975;28;20451;-88
2021/01/26 08:14:34;;;;;;;18.80;13.57;;;1.00;86.50;;;;;;5077164;28;20497;-77
2021/01/26 08:17:04;;;;;;;21.40;13.00;;;1.00;87.20;;;;;;5073660;28;20452;-84
2021/01/26 08:19:34;;;;;;;18.43;13.73;;;1.10;86.50;;;;;;5083650;28;20534;-85
2021/01/26 08:22:21;;;;;;;19.43;12.97;;;1.20;88.10;;;;;;5080778;28;20467;-83
2021/01/26 08:24:59;;;;;;;21.97;14.17;;;1.20;87.50;;;;;;5083120;28;20447;-86
2021/01/26 08:27:35;;;;;;;16.07;11.90;;;1.20;88.70;;;;;;5089798;28;20448;-87
2021/01/26 08:30:05;;;;;;;18.07;13.87;;;1.20;86.70;;;;;;5085014;28;20344;-91
2021/01/26 08:33:08;;;;;;;22.05;18.17;;;1.20;87.80;;;;;;5084658;28;20443;-86
2021/01/26 08:35:41;;;;;;;20.40;15.67;;;1.30;87.50;;;;;;5039590;28;20192;-88
2021/01/26 08:38:09;;;;;;;20.53;14.87;;;1.30;87.70;;;;;;5037063;28;20514;-84
2021/01/26 08:41:11;;;;;;;20.00;14.13;;;1.40;86.70;;;;;;5057467;28;20469;-84
2021/01/26 08:43:51;;;;;;;18.80;16.80;;;1.30;86.20;;;;;;5082548;28;20493;-85
2021/01/26 08:46:39;;;;;;;20.80;14.83;;;1.30;86.00;;;;;;5073208;28;20479;-89
2021/01/26 08:49:20;;;;;;;20.15;14.68;;;1.30;85.20;;;;;;5073366;28;20448;-85
2021/01/26 08:51:48;;;;;;;18.37;14.00;;;1.30;86.00;;;;;;5060257;28;20202;-82
2021/01/26 08:54:40;;;;;;;19.60;13.90;;;1.30;85.60;;;;;;5067522;28;20506;-84
2021/01/26 08:57:21;;;;;;;15.17;11.60;;;1.30;85.70;;;;;;5064839;28;20475;-83
2021/01/26 08:59:50;;;;;;;17.77;14.80;;;1.10;85.00;;;;;;5066105;28;20454;-85
2021/01/26 09:02:36;;;;;;;17.70;12.90;;;1.20;85.30;;;;;;5067170;28;20217;-84
2021/01/26 09:05:05;;;;;;;16.00;12.10;;;1.10;87.90;;;;;;5063805;28;20776;-82
2021/01/26 09:07:50;;;;;;;16.50;13.17;;;1.10;90.70;;;;;;5056650;28;20490;-81
2021/01/26 09:10:46;;;;;;;18.07;12.90;;;1.10;91.70;;;;;;5063789;28;20467;-84
2021/01/26 09:13:22;;;;;;;17.33;13.50;;;1.10;91.50;;;;;;5050993;28;20453;-83
2021/01/26 09:15:58;;;;;;;14.33;12.30;;;1.30;91.60;;;;;;5062737;28;20462;-84
2021/01/26 09:18:27;;;;;;;17.95;15.32;;;1.40;89.50;;;;;;5062623;28;20910;-85
2021/01/26 09:21:00;;;;;;;16.13;14.30;;;1.50;88.00;;;;;;5065331;28;20221;-83
2021/01/26 09:23:32;;;;;;;14.00;12.40;;;1.50;87.90;;;;;;5063095;28;20483;-83
2021/01/26 09:25:59;;;;;;;16.80;12.03;;;1.60;86.10;;;;;;5068819;28;20458;-83
2021/01/26 09:28:29;;;;;;;15.90;12.07;;;1.50;84.90;;;;;;5061406;28;20479;-85
2021/01/26 09:31:00;;;;;;;11.73;10.53;;;1.50;84.20;;;;;;5064750;28;20435;-83
2021/01/26 09:33:29;;;;;;;15.70;10.57;;;1.50;85.00;;;;;;5063375;28;20476;-82
2021/01/26 09:36:09;;;;;;;17.20;10.37;;;1.50;83.30;;;;;;5067788;28;20538;-85
2021/01/26 09:39:02;;;;;;;13.20;9.27;;;1.50;82.00;;;;;;5067137;28;20475;-82
2021/01/26 09:41:31;;;;;;;9.00;8.00;;;1.60;81.30;;;;;;5071107;28;20858;-87
2021/01/26 09:44:04;;;;;;;10.23;8.73;;;1.60;80.80;;;;;;5065454;28;20480;-84
2021/01/26 09:46:34;;;;;;;12.00;8.63;;;1.60;80.80;;;;;;5073119;28;20498;-84
2021/01/26 09:49:13;;;;;;;12.17;8.43;;;1.80;79.90;;;;;;5072583;28;20469;-84
2021/01/26 09:51:43;;;;;;;11.30;8.97;;;2.00;79.00;;;;;;5069280;28;20454;-85
2021/01/26 09:54:15;;;;;;;8.30;7.47;;;2.00;78.40;;;;;;5065295;28;20463;-84
2021/01/26 09:56:42;;;;;;;8.27;6.90;;;2.00;77.40;;;;;;5063602;28;20459;-83
2021/01/26 09:59:11;;;;;;;10.27;9.05;;;1.90;77.20;;;;;;5049850;28;20451;-79
2021/01/26 10:01:43;;;;;;;9.40;8.50;;;2.20;76.00;;;;;;5055021;28;21216;-82
2021/01/26 10:04:10;;;;;;;8.13;6.77;;;2.20;76.30;;;;;;5048045;28;20503;-76
2021/01/26 10:06:38;;;;;;;7.43;6.73;;;2.10;75.30;;;;;;5045441;28;20452;-76
2021/01/26 10:09:25;;;;;;;9.43;6.90;;;2.10;76.00;;;;;;5044480;28;20450;-79
2021/01/26 10:11:53;;;;;;;9.60;5.93;;;2.20;75.60;;;;;;5049197;28;20553;-76
2021/01/26 10:14:23;;;;;;;8.63;5.80;;;2.10;74.70;;;;;;5046109;28;20473;-78
2021/01/26 10:16:52;;;;;;;10.00;7.00;;;2.10;74.60;;;;;;5043818;28;20788;-78
2021/01/26 10:19:24;;;;;;;11.17;6.83;;;2.10;74.80;;;;;;5054184;28;20959;-77
2021/01/26 10:21:52;;;;;;;9.97;8.40;;;2.20;74.70;;;;;;5053687;28;20472;-78
2021/01/26 10:24:31;;;;;;;7.60;6.30;;;2.20;74.60;;;;;;5046359;28;20516;-77
2021/01/26 10:27:06;;;;;;;15.33;7.50;;;2.30;74.70;;;;;;5045106;28;20453;-79
2021/01/26 10:29:35;;;;;;;9.00;7.03;;;2.40;74.50;;;;;;5045921;28;20584;-78
2021/01/26 10:32:04;;;;;;;7.80;6.50;;;2.40;74.60;;;;;;5049230;28;20451;-77
2021/01/26 10:34:40;;;;;;;9.37;6.93;;;2.40;75.20;;;;;;5045068;28;21014;-77
2021/01/26 10:37:14;;;;;;;14.90;6.10;;;2.00;76.40;;;;;;5047937;28;20476;-77
2021/01/26 10:39:41;;;;;;;9.17;6.80;;;1.90;76.90;;;;;;5042470;28;20487;-76
2021/01/26 10:42:15;;;;;;;7.50;6.70;;;1.90;77.80;;;;;;5044759;28;20455;-80
2021/01/26 10:44:44;;;;;;;10.20;7.30;;;1.90;77.80;;;;;;5038749;28;21306;-77
2021/01/26 10:47:17;;;;;;;8.10;7.00;;;1.90;77.80;;;;;;5045353;28;20451;-79
2021/01/26 10:49:52;;;;;;;12.80;7.97;;;2.10;77.50;;;;;;5040045;28;21152;-80
2021/01/26 10:52:40;;;;;;;10.40;9.07;;;1.90;77.40;;;;;;5054815;28;20457;-86
2021/01/26 10:55:08;;;;;;;11.20;8.13;;;1.80;79.20;;;;;;5055349;28;20480;-84
2021/01/26 10:57:35;;;;;;;11.23;8.20;;;1.80;81.60;;;;;;5054151;28;20470;-86
2021/01/26 11:00:05;;;;;;;9.80;8.50;;;1.80;83.10;;;;;;5055969;28;20497;-85
2021/01/26 11:02:35;;;;;;;9.50;8.03;;;1.90;81.70;;;;;;5059401;28;20447;-83
2021/01/26 11:05:03;;;;;;;10.40;8.47;;;1.80;82.60;;;;;;5061032;28;20444;-84
2021/01/26 11:07:30;;;;;;;9.50;8.10;;;1.80;81.20;;;;;;5061556;28;20474;-84
2021/01/26 11:09:57;;;;;;;11.07;8.57;;;1.80;80.80;;;;;;5059124;28;20455;-80
2021/01/26 11:12:24;;;;;;;11.47;8.63;;;1.80;81.20;;;;;;5053708;28;20210;-84
2021/01/26 11:14:51;;;;;;;8.97;8.07;;;1.90;81.30;;;;;;5057857;28;20445;-79
2021/01/26 11:17:18;;;;;;;8.60;7.70;;;1.90;79.30;;;;;;5054329;28;20444;-80
2021/01/26 11:19:45;;;;;;;7.80;7.07;;;2.00;79.80;;;;;;5057610;28;20471;-81
2021/01/26 11:22:12;;;;;;;9.20;7.47;;;2.10;78.60;;;;;;5048894;28;21032;-79
2021/01/26 11:24:39;;;;;;;10.43;7.70;;;2.20;77.60;;;;;;5053464;28;20865;-79
2021/01/26 11:27:05;;;;;;;8.10;6.50;;;2.20;76.70;;;;;;5053404;28;21156;-81
2021/01/26 11:29:32;;;;;;;6.73;6.03;;;2.30;76.70;;;;;;5059816;28;20814;-80
2021/01/26 11:31:58;;;;;;;7.77;5.10;;;2.20;76.30;;;;;;5057697;28;20953;-81
2021/01/26 11:34:25;;;;;;;7.17;6.47;;;2.10;76.70;;;;;;5055833;28;20444;-80
2021/01/26 11:36:52;;;;;;;7.73;5.57;;;2.10;76.30;;;;;;5061513;28;20481;-81
2021/01/26 11:39:18;;;;;;;10.73;6.73;;;2.20;76.60;;;;;;5049498;28;21409;-81
2021/01/26 11:41:45;;;;;;;9.30;6.17;;;2.30;77.10;;;;;;5052549;28;20451;-80
2021/01/26 11:44:12;;;;;;;7.00;6.30;;;2.20;76.00;;;;;;5056030;28;20467;-81
2021/01/26 11:46:38;;;;;;;10.50;7.03;;;2.30;75.90;;;;;;5054347;28;20499;-81
2021/01/26 11:49:06;;;;;;;7.70;6.53;;;2.40;75.80;;;;;;5048097;28;20471;-80
2021/01/26 11:51:32;;;;;;;7.00;6.30;;;2.30;76.00;;;;;;5046099;28;20448;-80
2021/01/26 11:53:59;;;;;;;6.87;6.20;;;2.20;76.40;;;;;;5046730;28;20463;-79
2021/01/26 11:56:26;;;;;;;7.90;7.10;;;2.10;76.30;;;;;;5053659;28;20473;-80
2021/01/26 11:58:53;;;;;;;6.40;5.00;;;2.00;77.10;;;;;;5054358;28;20479;-79
2021/01/26 12:01:19;;;;;;;10.10;6.03;;;1.90;77.80;;;;;;5053870;28;20453;-80
2021/01/26 12:03:46;;;;;;;7.17;6.43;;;2.20;82.80;;;;;;5040991;28;20998;-73
2021/01/26 12:06:12;;;;;;;6.67;5.97;;;2.30;77.40;;;;;;5045454;28;20447;-74
2021/01/26 12:08:39;;;;;;;10.17;6.73;;;2.30;77.70;;;;;;5037420;28;21091;-75
2021/01/26 12:11:07;;;;;;;6.47;5.73;;;2.30;77.50;;;;;;5041027;28;20800;-74
2021/01/26 12:13:34;;;;;;;6.60;5.63;;;2.20;77.70;;;;;;5043877;28;20987;-86
2021/01/26 12:16:01;;;;;;;9.32;6.95;;;2.10;76.80;;;;;;5049980;28;20561;-81
2021/01/26 12:18:27;;;;;;;7.23;6.23;;;2.00;77.40;;;;;;5053307;28;20218;-78
2021/01/26 12:20:54;;;;;;;8.60;6.00;;;1.90;77.70;;;;;;5046107;28;20480;-78
2021/01/26 12:23:20;;;;;;;10.53;6.57;;;1.80;78.40;;;;;;5045516;28;20510;-78
2021/01/26 12:25:47;;;;;;;9.57;6.60;;;1.80;78.80;;;;;;5043657;28;20539;-81
2021/01/26 12:28:14;;;;;;;7.53;6.10;;;1.90;78.40;;;;;;5046551;28;20475;-80
2021/01/26 12:30:41;;;;;;;10.50;6.17;;;2.00;78.00;;;;;;5045946;28;20468;-79
2021/01/26 12:33:08;;;;;;;6.80;6.13;;;2.00;78.20;;;;;;5052639;28;20462;-79
2021/01/26 12:35:37;;;;;;;10.63;5.73;;;2.00;76.80;;;;;;5050664;28;20461;-80
2021/01/26 12:38:05;;;;;;;7.28;5.63;;;2.10;76.20;;;;;;5051631;28;20454;-87
2021/01/26 12:40:33;;;;;;;14.57;6.73;;;2.10;76.50;;;;;;5049422;28;20462;-79
2021/01/26 12:43:00;;;;;;;8.40;6.93;;;2.00;77.00;;;;;;5049636;28;20968;-78
2021/01/26 12:45:30;;;;;;;7.60;5.77;;;1.90;77.10;;;;;;5048180;28;20453;-83
2021/01/26 12:47:57;;;;;;;7.70;6.20;;;1.90;77.50;;;;;;5056930;28;20459;-84
2021/01/26 12:50:27;;;;;;;9.63;7.60;;;1.90;78.40;;;;;;5046109;28;20461;-78
2021/01/26 12:52:53;;;;;;;6.00;5.40;;;1.90;79.30;;;;;;5050051;28;20471;-77
2021/01/26 12:55:20;;;;;;;10.97;6.33;;;2.00;77.90;;;;;;5045108;28;20490;-77
2021/01/26 12:57:46;;;;;;;7.47;5.53;;;2.10;78.10;;;;;;5047637;28;20476;-77
2021/01/26 13:00:16;;;;;;;7.30;5.13;;;2.00;76.90;;;;;;5053787;28;20630;-84
2021/01/26 13:02:45;;;;;;;9.30;5.53;;;2.00;76.70;;;;;;5055920;28;20574;-81
2021/01/26 13:05:12;;;;;;;5.07;4.57;;;2.00;76.70;;;;;;5054595;28;20511;-79
2021/01/26 13:07:39;;;;;;;6.07;5.33;;;1.90;76.70;;;;;;5050191;28;20460;-79
2021/01/26 13:10:08;;;;;;;6.37;5.80;;;1.90;77.00;;;;;;5051463;28;20460;-81
2021/01/26 13:12:35;;;;;;;7.33;5.30;;;1.90;77.50;;;;;;5052680;28;20994;-80
2021/01/26 13:15:04;;;;;;;8.07;7.37;;;1.90;77.50;;;;;;5061192;28;20501;-81
2021/01/26 13:17:31;;;;;;;7.20;6.50;;;1.90;77.60;;;;;;5066408;28;20488;-85
2021/01/26 13:19:59;;;;;;;7.93;5.90;;;1.90;76.60;;;;;;5054149;28;20274;-83
2021/01/26 13:22:25;;;;;;;6.90;6.23;;;1.90;76.70;;;;;;5056249;28;20479;-80
2021/01/26 13:24:52;;;;;;;8.60;5.90;;;1.90;76.30;;;;;;5051723;28;20489;-79
2021/01/26 13:27:19;;;;;;;6.87;5.73;;;1.90;76.60;;;;;;5051876;28;20482;-82
2021/01/26 13:29:45;;;;;;;6.90;6.20;;;1.90;75.90;;;;;;5057208;28;20509;-88
2021/01/26 13:32:12;;;;;;;7.30;5.73;;;1.90;76.20;;;;;;5055201;28;20458;-83
2021/01/26 13:34:40;;;;;;;6.70;5.37;;;2.00;76.20;;;;;;5056097;28;20528;-86
2021/01/26 13:37:07;;;;;;;6.10;5.30;;;1.90;75.80;;;;;;5056124;28;20480;-85
2021/01/26 13:39:35;;;;;;;6.57;5.93;;;1.80;76.50;;;;;;5052266;28;20601;-82